sensor_id;sensor_type;location;lat;lon;timestamp;pressure;altitude;pressure_sealevel;temperature
73734;BMP280;62039;50.000;9.064;2022-09-13T00:00:26;99904.75;;;16.51
73734;BMP280;62039;50.000;9.064;2022-09-13T00:02:52;99912.66;;;16.51
73734;BMP280;62039;50.000;9.064;2022-09-13T00:05:19;99912.66;;;16.51
73734;BMP280;62039;50.000;9.064;2022-09-13T00:07:45;99919.50;;;16.52
73734;BMP280;62039;50.000;9.064;2022-09-13T00:10:12;99915.88;;;16.53
73734;BMP280;62039;50.000;9.064;2022-09-13T00:12:38;99912.41;;;16.53
73734;BMP280;62039;50.000;9.064;2022-09-13T00:15:06;99914.03;;;16.54
73734;BMP280;62039;50.000;9.064;2022-09-13T00:17:34;99914.03;;;16.54
73734;BMP280;62039;50.000;9.064;2022-09-13T00:20:01;99921.34;;;16.52
73734;BMP280;62039;50.000;9.064;2022-09-13T00:22:27;99915.28;;;16.51
73734;BMP280;62039;50.000;9.064;2022-09-13T00:24:54;99914.47;;;16.51
73734;BMP280;62039;50.000;9.064;2022-09-13T00:27:20;99906.78;;;16.49
73734;BMP280;62039;50.000;9.064;2022-09-13T00:29:47;99910.81;;;16.45
73734;BMP280;62039;50.000;9.064;2022-09-13T00:32:13;99912.88;;;16.43
73734;BMP280;62039;50.000;9.064;2022-09-13T00:34:41;99914.69;;;16.42
73734;BMP280;62039;50.000;9.064;2022-09-13T00:37:09;99899.91;;;16.41
73734;BMP280;62039;50.000;9.064;2022-09-13T00:39:35;99899.91;;;16.41
73734;BMP280;62039;50.000;9.064;2022-09-13T00:42:02;99891.19;;;16.41
73734;BMP280;62039;50.000;9.064;2022-09-13T00:44:56;99895.84;;;16.39
73734;BMP280;62039;50.000;9.064;2022-09-13T00:47:26;99897.28;;;16.35
73734;BMP280;62039;50.000;9.064;2022-09-13T00:49:58;99897.28;;;16.35
73734;BMP280;62039;50.000;9.064;2022-09-13T00:52:28;99894.84;;;16.33
73734;BMP280;62039;50.000;9.064;2022-09-13T00:55:00;99892.41;;;16.32
73734;BMP280;62039;50.000;9.064;2022-09-13T00:57:28;99884.75;;;16.30
73734;BMP280;62039;50.000;9.064;2022-09-13T00:59:59;99883.31;;;16.28
73734;BMP280;62039;50.000;9.064;2022-09-13T01:02:27;99882.50;;;16.27
73734;BMP280;62039;50.000;9.064;2022-09-13T01:04:55;99890.41;;;16.27
73734;BMP280;62039;50.000;9.064;2022-09-13T01:07:22;99880.88;;;16.26
73734;BMP280;62039;50.000;9.064;2022-09-13T01:09:50;99882.94;;;16.24
73734;BMP280;62039;50.000;9.064;2022-09-13T01:12:24;99880.50;;;16.23
73734;BMP280;62039;50.000;9.064;2022-09-13T01:14:56;99879.25;;;16.19
73734;BMP280;62039;50.000;9.064;2022-09-13T01:17:23;99865.50;;;16.17
73734;BMP280;62039;50.000;9.064;2022-09-13T01:19:49;99858.19;;;16.12
73734;BMP280;62039;50.000;9.064;2022-09-13T01:28:29;99837.41;;;15.91
73734;BMP280;62039;50.000;9.064;2022-09-13T01:31:04;99840.03;;;15.84
73734;BMP280;62039;50.000;9.064;2022-09-13T01:33:38;99847.34;;;15.82
73734;BMP280;62039;50.000;9.064;2022-09-13T01:36:38;99854.84;;;15.79
73734;BMP280;62039;50.000;9.064;2022-09-13T01:39:12;99846.56;;;15.75
73734;BMP280;62039;50.000;9.064;2022-09-13T01:41:53;99843.31;;;15.73
73734;BMP280;62039;50.000;9.064;2022-09-13T01:44:30;99847.97;;;15.71
73734;BMP280;62039;50.000;9.064;2022-09-13T01:47:08;99854.03;;;15.65
73734;BMP280;62039;50.000;9.064;2022-09-13T01:49:44;99860.94;;;15.59
73734;BMP280;62039;50.000;9.064;2022-09-13T01:52:17;99870.47;;;15.54
73734;BMP280;62039;50.000;9.064;2022-09-13T01:54:50;99880.59;;;15.50
73734;BMP280;62039;50.000;9.064;2022-09-13T01:57:26;99878.53;;;15.46
73734;BMP280;62039;50.000;9.064;2022-09-13T01:59:57;99883.19;;;15.44
73734;BMP280;62039;50.000;9.064;2022-09-13T02:02:29;99874.91;;;15.40
73734;BMP280;62039;50.000;9.064;2022-09-13T02:05:01;99859.50;;;15.37
73734;BMP280;62039;50.000;9.064;2022-09-13T02:07:31;99852.22;;;15.33
73734;BMP280;62039;50.000;9.064;2022-09-13T02:10:04;99847.38;;;15.29
73734;BMP280;62039;50.000;9.064;2022-09-13T02:12:34;99836.44;;;15.26
73734;BMP280;62039;50.000;9.064;2022-09-13T02:15:06;99833.41;;;15.22
73734;BMP280;62039;50.000;9.064;2022-09-13T02:17:37;99823.47;;;15.18
73734;BMP280;62039;50.000;9.064;2022-09-13T02:20:07;99822.28;;;15.14
73734;BMP280;62039;50.000;9.064;2022-09-13T02:22:43;99815.00;;;15.09
73734;BMP280;62039;50.000;9.064;2022-09-13T02:25:13;99804.03;;;15.06
73734;BMP280;62039;50.000;9.064;2022-09-13T02:27:43;99817.81;;;15.01
73734;BMP280;62039;50.000;9.064;2022-09-13T02:30:12;99841.69;;;15.00
73734;BMP280;62039;50.000;9.064;2022-09-13T02:32:42;99858.28;;;15.00
73734;BMP280;62039;50.000;9.064;2022-09-13T02:35:13;99862.53;;;15.01
73734;BMP280;62039;50.000;9.064;2022-09-13T02:37:43;99859.69;;;15.03
73734;BMP280;62039;50.000;9.064;2022-09-13T02:40:16;99864.72;;;15.04
73734;BMP280;62039;50.000;9.064;2022-09-13T02:42:48;99866.34;;;15.05
73734;BMP280;62039;50.000;9.064;2022-09-13T02:45:16;99876.69;;;15.07
73734;BMP280;62039;50.000;9.064;2022-09-13T02:47:51;99878.13;;;15.09
73734;BMP280;62039;50.000;9.064;2022-09-13T02:50:30;99878.13;;;15.09
73734;BMP280;62039;50.000;9.064;2022-09-13T02:53:03;99880.75;;;15.09
73734;BMP280;62039;50.000;9.064;2022-09-13T02:55:40;99879.13;;;15.08
73734;BMP280;62039;50.000;9.064;2022-09-13T02:58:10;99884.38;;;15.08
73734;BMP280;62039;50.000;9.064;2022-09-13T03:00:39;99887.81;;;15.09
73734;BMP280;62039;50.000;9.064;2022-09-13T03:03:09;99896.72;;;15.08
73734;BMP280;62039;50.000;9.064;2022-09-13T03:05:37;99903.19;;;15.05
73734;BMP280;62039;50.000;9.064;2022-09-13T03:08:04;99901.56;;;15.04
73734;BMP280;62039;50.000;9.064;2022-09-13T03:10:39;99893.88;;;15.03
73734;BMP280;62039;50.000;9.064;2022-09-13T03:13:22;99896.72;;;15.01
73734;BMP280;62039;50.000;9.064;2022-09-13T03:16:02;99901.16;;;15.01
73734;BMP280;62039;50.000;9.064;2022-09-13T03:18:45;99896.28;;;14.98
73734;BMP280;62039;50.000;9.064;2022-09-13T03:21:22;99894.66;;;14.97
73734;BMP280;62039;50.000;9.064;2022-09-13T03:24:00;99887.00;;;14.95
73734;BMP280;62039;50.000;9.064;2022-09-13T03:26:38;99888.00;;;14.94
73734;BMP280;62039;50.000;9.064;2022-09-13T03:29:23;99880.09;;;14.94
73734;BMP280;62039;50.000;9.064;2022-09-13T03:31:59;99878.47;;;14.93
73734;BMP280;62039;50.000;9.064;2022-09-13T03:34:35;99876.66;;;14.94
73734;BMP280;62039;50.000;9.064;2022-09-13T03:37:10;99877.47;;;14.94
73734;BMP280;62039;50.000;9.064;2022-09-13T03:39:41;99871.22;;;14.95
73734;BMP280;62039;50.000;9.064;2022-09-13T03:42:13;99872.84;;;14.96
73734;BMP280;62039;50.000;9.064;2022-09-13T03:44:45;99869.59;;;14.94
73734;BMP280;62039;50.000;9.064;2022-09-13T03:47:13;99864.72;;;14.91
73734;BMP280;62039;50.000;9.064;2022-09-13T03:49:42;99859.88;;;14.88
73734;BMP280;62039;50.000;9.064;2022-09-13T03:52:08;99856.22;;;14.82
73734;BMP280;62039;50.000;9.064;2022-09-13T03:54:36;99846.28;;;14.78
73734;BMP280;62039;50.000;9.064;2022-09-13T03:57:10;99838.81;;;14.75
73734;BMP280;62039;50.000;9.064;2022-09-13T03:59:38;99845.41;;;14.71
73734;BMP280;62039;50.000;9.064;2022-09-13T04:02:07;99841.59;;;14.67
73734;BMP280;62039;50.000;9.064;2022-09-13T04:04:33;99845.22;;;14.66
73734;BMP280;62039;50.000;9.064;2022-09-13T04:07:01;99856.72;;;14.65
73734;BMP280;62039;50.000;9.064;2022-09-13T04:09:28;99859.56;;;14.63
73734;BMP280;62039;50.000;9.064;2022-09-13T04:11:54;99852.47;;;14.64
73734;BMP280;62039;50.000;9.064;2022-09-13T04:14:21;99847.22;;;14.64
73734;BMP280;62039;50.000;9.064;2022-09-13T04:16:47;99845.41;;;14.64
73734;BMP280;62039;50.000;9.064;2022-09-13T04:19:14;99855.09;;;14.64
73734;BMP280;62039;50.000;9.064;2022-09-13T04:21:40;99839.75;;;14.61
73734;BMP280;62039;50.000;9.064;2022-09-13T04:24:08;99850.44;;;14.59
73734;BMP280;62039;50.000;9.064;2022-09-13T04:26:35;99838.72;;;14.55
73734;BMP280;62039;50.000;9.064;2022-09-13T04:29:01;99837.28;;;14.52
73734;BMP280;62039;50.000;9.064;2022-09-13T04:31:28;99838.91;;;14.53
73734;BMP280;62039;50.000;9.064;2022-09-13T04:33:54;99839.53;;;14.56
73734;BMP280;62039;50.000;9.064;2022-09-13T04:36:21;99838.31;;;14.58
73734;BMP280;62039;50.000;9.064;2022-09-13T04:38:47;99842.19;;;14.62
73734;BMP280;62039;50.000;9.064;2022-09-13T04:41:15;99847.84;;;14.66
73734;BMP280;62039;50.000;9.064;2022-09-13T04:43:42;99844.03;;;14.68
73734;BMP280;62039;50.000;9.064;2022-09-13T04:46:08;99844.59;;;14.70
73734;BMP280;62039;50.000;9.064;2022-09-13T04:48:35;99844.41;;;14.72
73734;BMP280;62039;50.000;9.064;2022-09-13T04:51:02;99845.88;;;14.74
73734;BMP280;62039;50.000;9.064;2022-09-13T04:53:29;99840.44;;;14.76
73734;BMP280;62039;50.000;9.064;2022-09-13T04:55:59;99837.00;;;14.75
73734;BMP280;62039;50.000;9.064;2022-09-13T04:58:27;99848.50;;;14.74
73734;BMP280;62039;50.000;9.064;2022-09-13T05:00:53;99851.34;;;14.73
73734;BMP280;62039;50.000;9.064;2022-09-13T05:03:25;99848.69;;;14.73
73734;BMP280;62039;50.000;9.064;2022-09-13T05:05:52;99852.31;;;14.72
73734;BMP280;62039;50.000;9.064;2022-09-13T05:08:18;99848.88;;;14.71
73734;BMP280;62039;50.000;9.064;2022-09-13T05:10:46;99851.34;;;14.73
73734;BMP280;62039;50.000;9.064;2022-09-13T05:13:12;99851.34;;;14.73
73734;BMP280;62039;50.000;9.064;2022-09-13T05:15:40;99859.03;;;14.74
73734;BMP280;62039;50.000;9.064;2022-09-13T05:18:06;99858.22;;;14.74
73734;BMP280;62039;50.000;9.064;2022-09-13T05:20:34;99857.81;;;14.77
73734;BMP280;62039;50.000;9.064;2022-09-13T05:23:00;99862.25;;;14.76
73734;BMP280;62039;50.000;9.064;2022-09-13T05:25:27;99863.28;;;14.75
73734;BMP280;62039;50.000;9.064;2022-09-13T05:27:53;99867.91;;;14.73
73734;BMP280;62039;50.000;9.064;2022-09-13T05:30:21;99866.25;;;14.72
73734;BMP280;62039;50.000;9.064;2022-09-13T05:32:49;99872.13;;;14.68
73734;BMP280;62039;50.000;9.064;2022-09-13T05:35:15;99876.13;;;14.64
73734;BMP280;62039;50.000;9.064;2022-09-13T05:37:42;99873.91;;;14.61
73734;BMP280;62039;50.000;9.064;2022-09-13T05:40:08;99872.28;;;14.60
73734;BMP280;62039;50.000;9.064;2022-09-13T05:42:38;99874.53;;;14.56
73734;BMP280;62039;50.000;9.064;2022-09-13T05:45:05;99886.84;;;14.56
73734;BMP280;62039;50.000;9.064;2022-09-13T05:47:32;99889.47;;;14.56
73734;BMP280;62039;50.000;9.064;2022-09-13T05:50:00;99882.41;;;14.56
73734;BMP280;62039;50.000;9.064;2022-09-13T05:52:36;99875.72;;;14.53
73734;BMP280;62039;50.000;9.064;2022-09-13T05:55:03;99880.97;;;14.53
73734;BMP280;62039;50.000;9.064;2022-09-13T05:57:29;99890.66;;;14.53
73734;BMP280;62039;50.000;9.064;2022-09-13T05:59:56;99882.78;;;14.53
73734;BMP280;62039;50.000;9.064;2022-09-13T06:02:22;99880.34;;;14.51
73734;BMP280;62039;50.000;9.064;2022-09-13T06:04:49;99876.72;;;14.52
73734;BMP280;62039;50.000;9.064;2022-09-13T06:07:17;99878.34;;;14.53
73734;BMP280;62039;50.000;9.064;2022-09-13T06:09:43;99881.59;;;14.56
73734;BMP280;62039;50.000;9.064;2022-09-13T06:12:10;99882.81;;;14.60
73734;BMP280;62039;50.000;9.064;2022-09-13T06:14:36;99890.50;;;14.61
73734;BMP280;62039;50.000;9.064;2022-09-13T06:17:03;99895.34;;;14.64
73734;BMP280;62039;50.000;9.064;2022-09-13T06:19:29;99894.16;;;14.67
73734;BMP280;62039;50.000;9.064;2022-09-13T06:21:56;99895.38;;;14.71
73734;BMP280;62039;50.000;9.064;2022-09-13T06:24:23;99885.31;;;14.74
73734;BMP280;62039;50.000;9.064;2022-09-13T06:26:50;99880.66;;;14.76
73734;BMP280;62039;50.000;9.064;2022-09-13T06:29:17;99882.91;;;14.79
73734;BMP280;62039;50.000;9.064;2022-09-13T06:31:43;99880.88;;;14.81
73734;BMP280;62039;50.000;9.064;2022-09-13T06:34:11;99890.41;;;14.82
73734;BMP280;62039;50.000;9.064;2022-09-13T06:36:37;99891.81;;;14.85
73734;BMP280;62039;50.000;9.064;2022-09-13T06:39:04;99896.28;;;14.91
73734;BMP280;62039;50.000;9.064;2022-09-13T06:41:32;99879.28;;;14.94
73734;BMP280;62039;50.000;9.064;2022-09-13T06:44:00;99884.94;;;14.97
73734;BMP280;62039;50.000;9.064;2022-09-13T06:46:28;99871.41;;;15.00
73734;BMP280;62039;50.000;9.064;2022-09-13T06:48:59;99870.22;;;15.03
73734;BMP280;62039;50.000;9.064;2022-09-13T06:51:26;99858.47;;;15.05
73734;BMP280;62039;50.000;9.064;2022-09-13T06:53:53;99871.22;;;15.08
73734;BMP280;62039;50.000;9.064;2022-09-13T06:56:21;99859.91;;;15.14
73734;BMP280;62039;50.000;9.064;2022-09-13T06:58:53;99868.00;;;15.19
73734;BMP280;62039;50.000;9.064;2022-09-13T07:01:21;99872.88;;;15.22
73734;BMP280;62039;50.000;9.064;2022-09-13T07:03:51;99879.53;;;15.25
73734;BMP280;62039;50.000;9.064;2022-09-13T07:06:19;99879.97;;;15.28
73734;BMP280;62039;50.000;9.064;2022-09-13T07:08:49;99885.81;;;15.30
73734;BMP280;62039;50.000;9.064;2022-09-13T07:11:17;99894.13;;;15.34
73734;BMP280;62039;50.000;9.064;2022-09-13T07:13:47;99897.16;;;15.38
73734;BMP280;62039;50.000;9.064;2022-09-13T07:16:14;99906.88;;;15.44
73734;BMP280;62039;50.000;9.064;2022-09-13T07:18:41;99911.38;;;15.50
73734;BMP280;62039;50.000;9.064;2022-09-13T07:21:09;99917.47;;;15.57
73734;BMP280;62039;50.000;9.064;2022-09-13T07:23:38;99917.47;;;15.63
73734;BMP280;62039;50.000;9.064;2022-09-13T07:26:05;99913.41;;;15.67
73734;BMP280;62039;50.000;9.064;2022-09-13T07:28:34;99913.59;;;15.73
73734;BMP280;62039;50.000;9.064;2022-09-13T07:31:05;99914.59;;;15.78
73734;BMP280;62039;50.000;9.064;2022-09-13T07:33:34;99912.19;;;15.83
73734;BMP280;62039;50.000;9.064;2022-09-13T07:36:01;99919.66;;;15.86
73734;BMP280;62039;50.000;9.064;2022-09-13T07:38:28;99920.88;;;15.90
73734;BMP280;62039;50.000;9.064;2022-09-13T07:40:54;99930.19;;;15.93
73734;BMP280;62039;50.000;9.064;2022-09-13T07:43:21;99930.78;;;15.95
73734;BMP280;62039;50.000;9.064;2022-09-13T07:45:55;99924.91;;;15.99
73734;BMP280;62039;50.000;9.064;2022-09-13T07:48:22;99918.22;;;16.03
73734;BMP280;62039;50.000;9.064;2022-09-13T07:50:57;99926.31;;;16.08
73734;BMP280;62039;50.000;9.064;2022-09-13T07:53:23;99939.28;;;16.10
73734;BMP280;62039;50.000;9.064;2022-09-13T07:55:50;99938.88;;;16.13
73734;BMP280;62039;50.000;9.064;2022-09-13T07:58:16;99936.03;;;16.15
73734;BMP280;62039;50.000;9.064;2022-09-13T08:00:43;99927.72;;;16.18
73734;BMP280;62039;50.000;9.064;2022-09-13T08:03:09;99918.41;;;16.22
73734;BMP280;62039;50.000;9.064;2022-09-13T08:05:37;99910.06;;;16.25
73734;BMP280;62039;50.000;9.064;2022-09-13T08:08:05;99909.69;;;16.28
73734;BMP280;62039;50.000;9.064;2022-09-13T08:10:32;99901.38;;;16.31
73734;BMP280;62039;50.000;9.064;2022-09-13T08:12:58;99886.75;;;16.35
73734;BMP280;62039;50.000;9.064;2022-09-13T08:15:26;99900.31;;;16.38
73734;BMP280;62039;50.000;9.064;2022-09-13T08:17:53;99893.81;;;16.41
73734;BMP280;62039;50.000;9.064;2022-09-13T08:20:19;99886.53;;;16.43
73734;BMP280;62039;50.000;9.064;2022-09-13T08:22:46;99877.16;;;16.47
73734;BMP280;62039;50.000;9.064;2022-09-13T08:25:14;99874.69;;;16.52
73734;BMP280;62039;50.000;9.064;2022-09-13T08:27:40;99863.53;;;16.57
73734;BMP280;62039;50.000;9.064;2022-09-13T08:30:08;99856.63;;;16.62
73734;BMP280;62039;50.000;9.064;2022-09-13T08:32:34;99846.44;;;16.66
73734;BMP280;62039;50.000;9.064;2022-09-13T08:35:01;99861.66;;;16.70
73734;BMP280;62039;50.000;9.064;2022-09-13T08:37:27;99862.84;;;16.74
73734;BMP280;62039;50.000;9.064;2022-09-13T08:39:54;99865.63;;;16.79
73734;BMP280;62039;50.000;9.064;2022-09-13T08:42:30;99858.94;;;16.83
73734;BMP280;62039;50.000;9.064;2022-09-13T08:45:00;99859.50;;;16.85
73734;BMP280;62039;50.000;9.064;2022-09-13T08:47:31;99864.00;;;16.92
73734;BMP280;62039;50.000;9.064;2022-09-13T08:50:05;99860.09;;;16.94
73734;BMP280;62039;50.000;9.064;2022-09-13T08:52:34;99861.06;;;17.00
73734;BMP280;62039;50.000;9.064;2022-09-13T08:55:25;99864.94;;;17.04
73734;BMP280;62039;50.000;9.064;2022-09-13T08:58:00;99868.09;;;17.12
73734;BMP280;62039;50.000;9.064;2022-09-13T09:00:34;99869.09;;;17.18
73734;BMP280;62039;50.000;9.064;2022-09-13T09:03:13;99879.34;;;17.26
73734;BMP280;62039;50.000;9.064;2022-09-13T09:05:44;99865.91;;;17.34
73734;BMP280;62039;50.000;9.064;2022-09-13T09:08:17;99866.44;;;17.43
73734;BMP280;62039;50.000;9.064;2022-09-13T09:10:47;99868.00;;;17.50
73734;BMP280;62039;50.000;9.064;2022-09-13T09:13:20;99874.88;;;17.58
73734;BMP280;62039;50.000;9.064;2022-09-13T09:15:53;99868.53;;;17.66
73734;BMP280;62039;50.000;9.064;2022-09-13T09:18:22;99861.34;;;17.73
73734;BMP280;62039;50.000;9.064;2022-09-13T09:20:51;99863.69;;;17.81
73734;BMP280;62039;50.000;9.064;2022-09-13T09:23:19;99868.91;;;17.87
73734;BMP280;62039;50.000;9.064;2022-09-13T09:25:49;99864.34;;;17.94
73734;BMP280;62039;50.000;9.064;2022-09-13T09:28:18;99864.28;;;18.01
73734;BMP280;62039;50.000;9.064;2022-09-13T09:30:52;99867.09;;;18.06
73734;BMP280;62039;50.000;9.064;2022-09-13T09:33:36;99863.56;;;18.12
73734;BMP280;62039;50.000;9.064;2022-09-13T09:36:16;99857.63;;;18.17
73734;BMP280;62039;50.000;9.064;2022-09-13T09:38:44;99856.13;;;18.21
73734;BMP280;62039;50.000;9.064;2022-09-13T09:41:14;99859.78;;;18.26
73734;BMP280;62039;50.000;9.064;2022-09-13T09:43:49;99850.16;;;18.32
73734;BMP280;62039;50.000;9.064;2022-09-13T09:46:20;99850.06;;;18.38
73734;BMP280;62039;50.000;9.064;2022-09-13T09:48:51;99858.72;;;18.46
73734;BMP280;62039;50.000;9.064;2022-09-13T09:51:20;99860.47;;;18.52
73734;BMP280;62039;50.000;9.064;2022-09-13T09:53:52;99850.63;;;18.59
73734;BMP280;62039;50.000;9.064;2022-09-13T09:56:22;99848.91;;;18.64
73734;BMP280;62039;50.000;9.064;2022-09-13T09:58:51;99850.06;;;18.68
73734;BMP280;62039;50.000;9.064;2022-09-13T10:01:21;99836.19;;;18.73
73734;BMP280;62039;50.000;9.064;2022-09-13T10:03:55;99826.16;;;18.75
73734;BMP280;62039;50.000;9.064;2022-09-13T10:06:24;99819.03;;;18.75
73734;BMP280;62039;50.000;9.064;2022-09-13T10:08:57;99827.78;;;18.76
73734;BMP280;62039;50.000;9.064;2022-09-13T10:11:38;99844.69;;;18.75
73734;BMP280;62039;50.000;9.064;2022-09-13T10:14:30;99845.72;;;18.74
73734;BMP280;62039;50.000;9.064;2022-09-13T10:17:01;99852.19;;;18.78
73734;BMP280;62039;50.000;9.064;2022-09-13T10:19:28;99863.34;;;18.80
73734;BMP280;62039;50.000;9.064;2022-09-13T10:21:59;99861.06;;;18.83
73734;BMP280;62039;50.000;9.064;2022-09-13T10:24:26;99858.41;;;18.83
73734;BMP280;62039;50.000;9.064;2022-09-13T10:26:53;99872.44;;;18.84
73734;BMP280;62039;50.000;9.064;2022-09-13T10:29:21;99873.47;;;18.83
73734;BMP280;62039;50.000;9.064;2022-09-13T10:31:49;99864.50;;;18.84
73734;BMP280;62039;50.000;9.064;2022-09-13T10:34:19;99859.44;;;18.82
73734;BMP280;62039;50.000;9.064;2022-09-13T10:36:51;99873.47;;;18.83
73734;BMP280;62039;50.000;9.064;2022-09-13T10:39:20;99877.94;;;18.82
73734;BMP280;62039;50.000;9.064;2022-09-13T10:41:50;99877.16;;;18.82
73734;BMP280;62039;50.000;9.064;2022-09-13T10:44:26;99879.78;;;18.82
73734;BMP280;62039;50.000;9.064;2022-09-13T10:46:54;99879.22;;;18.80
73734;BMP280;62039;50.000;9.064;2022-09-13T10:49:38;99872.31;;;18.79
73734;BMP280;62039;50.000;9.064;2022-09-13T10:52:28;99874.38;;;18.77
73734;BMP280;62039;50.000;9.064;2022-09-13T10:54:55;99868.28;;;18.76
73734;BMP280;62039;50.000;9.064;2022-09-13T10:57:31;99865.41;;;18.78
73734;BMP280;62039;50.000;9.064;2022-09-13T11:00:00;99871.50;;;18.78
73734;BMP280;62039;50.000;9.064;2022-09-13T11:02:43;99864.13;;;18.80
73734;BMP280;62039;50.000;9.064;2022-09-13T11:05:21;99867.03;;;18.79
73734;BMP280;62039;50.000;9.064;2022-09-13T11:08:09;99872.31;;;18.79
73734;BMP280;62039;50.000;9.064;2022-09-13T11:10:44;99871.50;;;18.78
73734;BMP280;62039;50.000;9.064;2022-09-13T11:13:19;99873.13;;;18.79
73734;BMP280;62039;50.000;9.064;2022-09-13T11:15:55;99871.84;;;18.82
73734;BMP280;62039;50.000;9.064;2022-09-13T11:18:44;99874.88;;;18.86
73734;BMP280;62039;50.000;9.064;2022-09-13T11:21:23;99875.44;;;18.88
73734;BMP280;62039;50.000;9.064;2022-09-13T11:24:09;99878.25;;;18.93
73734;BMP280;62039;50.000;9.064;2022-09-13T11:26:54;99878.38;;;18.98
73734;BMP280;62039;50.000;9.064;2022-09-13T11:29:32;99872.56;;;19.07
73734;BMP280;62039;50.000;9.064;2022-09-13T11:32:09;99871.06;;;19.11
73734;BMP280;62039;50.000;9.064;2022-09-13T11:34:44;99871.16;;;19.16
73734;BMP280;62039;50.000;9.064;2022-09-13T11:37:25;99860.69;;;19.21
73734;BMP280;62039;50.000;9.064;2022-09-13T11:40:19;99852.91;;;19.27
73734;BMP280;62039;50.000;9.064;2022-09-13T11:42:53;99839.78;;;19.32
73734;BMP280;62039;50.000;9.064;2022-09-13T11:45:25;99831.94;;;19.37
73734;BMP280;62039;50.000;9.064;2022-09-13T11:48:13;99843.22;;;19.44
73734;BMP280;62039;50.000;9.064;2022-09-13T11:50:49;99841.09;;;19.52
73734;BMP280;62039;50.000;9.064;2022-09-13T11:53:38;99838.09;;;19.61
73734;BMP280;62039;50.000;9.064;2022-09-13T11:56:10;99842.22;;;19.68
73734;BMP280;62039;50.000;9.064;2022-09-13T11:58:44;99847.16;;;19.76
73734;BMP280;62039;50.000;9.064;2022-09-13T12:01:16;99849.47;;;19.84
73734;BMP280;62039;50.000;9.064;2022-09-13T12:03:51;99834.69;;;19.88
73734;BMP280;62039;50.000;9.064;2022-09-13T12:06:24;99830.19;;;19.89
73734;BMP280;62039;50.000;9.064;2022-09-13T12:08:55;99821.81;;;19.92
73734;BMP280;62039;50.000;9.064;2022-09-13T12:11:26;99820.53;;;19.94
73734;BMP280;62039;50.000;9.064;2022-09-13T12:13:56;99802.53;;;19.96
73734;BMP280;62039;50.000;9.064;2022-09-13T12:16:29;99804.72;;;19.99
73734;BMP280;62039;50.000;9.064;2022-09-13T12:19:05;99804.72;;;19.99
73734;BMP280;62039;50.000;9.064;2022-09-13T12:21:35;99814.31;;;20.01
73734;BMP280;62039;50.000;9.064;2022-09-13T12:24:10;99823.16;;;20.06
73734;BMP280;62039;50.000;9.064;2022-09-13T12:26:40;99815.53;;;20.10
73734;BMP280;62039;50.000;9.064;2022-09-13T12:29:13;99804.47;;;20.13
73734;BMP280;62039;50.000;9.064;2022-09-13T12:31:40;99799.78;;;20.15
73734;BMP280;62039;50.000;9.064;2022-09-13T12:34:12;99798.25;;;20.19
73734;BMP280;62039;50.000;9.064;2022-09-13T12:37:09;99790.88;;;20.21
73734;BMP280;62039;50.000;9.064;2022-09-13T12:40:03;99789.13;;;20.26
73734;BMP280;62039;50.000;9.064;2022-09-13T12:45:36;99784.78;;;20.37
73734;BMP280;62039;50.000;9.064;2022-09-13T12:48:22;99766.41;;;20.47
73734;BMP280;62039;50.000;9.064;2022-09-13T12:51:07;99759.44;;;20.58
73734;BMP280;62039;50.000;9.064;2022-09-13T12:53:58;99762.59;;;20.71
73734;BMP280;62039;50.000;9.064;2022-09-13T12:56:40;99760.44;;;20.85
73734;BMP280;62039;50.000;9.064;2022-09-13T12:59:24;99762.53;;;21.00
73734;BMP280;62039;50.000;9.064;2022-09-13T13:01:54;99760.59;;;21.12
73734;BMP280;62039;50.000;9.064;2022-09-13T13:04:24;99755.50;;;21.27
73734;BMP280;62039;50.000;9.064;2022-09-13T13:06:56;99757.84;;;21.40
73734;BMP280;62039;50.000;9.064;2022-09-13T13:09:30;99758.31;;;21.54
73734;BMP280;62039;50.000;9.064;2022-09-13T13:11:58;99756.03;;;21.63
73734;BMP280;62039;50.000;9.064;2022-09-13T13:14:46;99761.63;;;21.66
73734;BMP280;62039;50.000;9.064;2022-09-13T13:20:39;99754.53;;;21.72
73734;BMP280;62039;50.000;9.064;2022-09-13T13:23:18;99757.25;;;21.77
73734;BMP280;62039;50.000;9.064;2022-09-13T13:31:40;99748.84;;;21.85
73734;BMP280;62039;50.000;9.064;2022-09-13T13:34:33;99744.88;;;21.87
73734;BMP280;62039;50.000;9.064;2022-09-13T13:37:02;99742.31;;;21.92
73734;BMP280;62039;50.000;9.064;2022-09-13T13:39:36;99736.22;;;21.97
73734;BMP280;62039;50.000;9.064;2022-09-13T13:42:11;99745.34;;;22.01
73734;BMP280;62039;50.000;9.064;2022-09-13T13:45:16;99746.16;;;22.02
73734;BMP280;62039;50.000;9.064;2022-09-13T13:48:11;99741.69;;;22.07
73734;BMP280;62039;50.000;9.064;2022-09-13T13:51:12;99741.97;;;22.11
73734;BMP280;62039;50.000;9.064;2022-09-13T13:53:40;99736.72;;;22.16
73734;BMP280;62039;50.000;9.064;2022-09-13T13:56:18;99736.78;;;22.21
73734;BMP280;62039;50.000;9.064;2022-09-13T13:58:48;99731.72;;;22.24
73734;BMP280;62039;50.000;9.064;2022-09-13T14:01:20;99721.41;;;22.28
73734;BMP280;62039;50.000;9.064;2022-09-13T14:07:16;99721.69;;;22.31
73734;BMP280;62039;50.000;9.064;2022-09-13T14:09:50;99716.69;;;22.35
73734;BMP280;62039;50.000;9.064;2022-09-13T14:12:31;99703.66;;;22.39
73734;BMP280;62039;50.000;9.064;2022-09-13T14:15:17;99694.41;;;22.41
73734;BMP280;62039;50.000;9.064;2022-09-13T14:20:56;99708.06;;;22.50
73734;BMP280;62039;50.000;9.064;2022-09-13T14:23:22;99692.13;;;22.55
73734;BMP280;62039;50.000;9.064;2022-09-13T14:25:53;99691.13;;;22.61
73734;BMP280;62039;50.000;9.064;2022-09-13T14:28:21;99691.97;;;22.66
73734;BMP280;62039;50.000;9.064;2022-09-13T14:30:52;99688.00;;;22.69
73734;BMP280;62039;50.000;9.064;2022-09-13T14:33:23;99681.34;;;22.71
73734;BMP280;62039;50.000;9.064;2022-09-13T14:35:56;99679.78;;;22.76
73734;BMP280;62039;50.000;9.064;2022-09-13T14:38:25;99682.19;;;22.77
73734;BMP280;62039;50.000;9.064;2022-09-13T14:40:53;99676.34;;;22.80
73734;BMP280;62039;50.000;9.064;2022-09-13T14:43:26;99680.13;;;22.84
73734;BMP280;62039;50.000;9.064;2022-09-13T14:45:58;99680.16;;;22.89
73734;BMP280;62039;50.000;9.064;2022-09-13T14:48:30;99688.16;;;22.94
73734;BMP280;62039;50.000;9.064;2022-09-13T14:51:00;99687.91;;;22.96
73734;BMP280;62039;50.000;9.064;2022-09-13T14:53:30;99691.13;;;22.98
73734;BMP280;62039;50.000;9.064;2022-09-13T14:56:02;99684.72;;;22.99
73734;BMP280;62039;50.000;9.064;2022-09-13T14:58:37;99685.50;;;22.99